createdAt,value
2018-04-15T00:01:30.323Z,99.90
2018-04-15T00:03:58.652Z,99.90
2018-04-15T00:06:26.191Z,99.90
2018-04-15T00:08:53.645Z,99.90
2018-04-15T00:11:21.111Z,99.90
2018-04-15T00:13:48.578Z,99.90
2018-04-15T00:16:16.056Z,99.90
2018-04-15T00:18:43.524Z,99.90
2018-04-15T00:21:10.987Z,99.90
2018-04-15T00:23:38.424Z,99.90
2018-04-15T00:26:05.912Z,99.90
2018-04-15T00:28:33.982Z,99.90
2018-04-15T00:31:01.471Z,99.90
2018-04-15T00:33:28.915Z,99.90
2018-04-15T00:35:56.388Z,99.90
2018-04-15T00:38:23.810Z,99.90
2018-04-15T00:40:51.284Z,99.90
2018-04-15T00:43:18.730Z,99.90
2018-04-15T00:45:46.194Z,99.90
2018-04-15T00:48:13.736Z,99.90
2018-04-15T00:50:41.231Z,99.90
2018-04-15T00:53:08.696Z,99.90
2018-04-15T00:55:36.175Z,99.90
2018-04-15T00:58:07.621Z,99.90
2018-04-15T01:00:35.844Z,99.90
2018-04-15T01:03:03.325Z,99.90
2018-04-15T01:05:30.793Z,99.90
2018-04-15T01:07:58.274Z,99.90
2018-04-15T01:10:25.715Z,99.90
2018-04-15T01:12:53.207Z,99.90
2018-04-15T01:15:20.663Z,99.90
2018-04-15T01:17:48.146Z,99.90
2018-04-15T01:20:15.609Z,99.90
2018-04-15T01:22:46.995Z,99.90
2018-04-15T01:25:14.531Z,99.90
2018-04-15T01:27:42.770Z,99.90
2018-04-15T01:30:10.234Z,99.90
2018-04-15T01:32:37.706Z,99.90
2018-04-15T01:35:05.159Z,99.90
2018-04-15T01:37:33.384Z,99.90
2018-04-15T01:40:01.072Z,99.90
2018-04-15T01:42:28.553Z,99.90
2018-04-15T01:44:56.006Z,99.90
2018-04-15T01:47:23.448Z,99.90
2018-04-15T01:49:51.695Z,99.90
2018-04-15T01:52:19.147Z,99.90
2018-04-15T01:54:46.671Z,99.90
2018-04-15T01:57:14.118Z,99.90
2018-04-15T01:59:41.570Z,99.90
2018-04-15T02:02:09.123Z,99.90
2018-04-15T02:04:37.373Z,99.90
2018-04-15T02:07:04.830Z,99.90
2018-04-15T02:09:32.323Z,99.90
2018-04-15T02:11:59.763Z,99.90
2018-04-15T02:14:27.231Z,99.90
2018-04-15T02:16:54.700Z,99.90
2018-04-15T02:19:22.151Z,99.90
2018-04-15T02:21:49.604Z,99.90
2018-04-15T02:24:17.076Z,99.90
2018-04-15T02:26:44.530Z,99.90
2018-04-15T02:29:12.000Z,99.90
2018-04-15T02:31:39.456Z,99.90
2018-04-15T02:34:06.927Z,99.90
2018-04-15T02:36:34.403Z,99.90
2018-04-15T02:39:02.644Z,99.90
2018-04-15T02:41:30.110Z,99.90
2018-04-15T02:43:57.566Z,99.90
2018-04-15T02:46:25.044Z,99.90
2018-04-15T02:48:53.297Z,99.90
2018-04-15T02:51:21.548Z,99.90
2018-04-15T02:53:49.782Z,99.90
2018-04-15T02:56:18.014Z,99.90
2018-04-15T02:58:45.474Z,99.90
2018-04-15T03:01:12.965Z,99.90
2018-04-15T03:03:40.517Z,99.90
2018-04-15T03:06:08.764Z,99.90
2018-04-15T03:08:36.203Z,99.90
2018-04-15T03:11:03.670Z,99.90
2018-04-15T03:13:31.131Z,99.90
2018-04-15T03:15:58.614Z,99.90
2018-04-15T03:18:26.049Z,99.90
2018-04-15T03:20:53.519Z,99.90
2018-04-15T03:23:20.966Z,99.90
2018-04-15T03:25:48.461Z,99.90
2018-04-15T03:28:15.886Z,99.90
2018-04-15T03:30:43.360Z,99.90
2018-04-15T03:33:10.815Z,99.90
2018-04-15T03:35:39.059Z,99.90
2018-04-15T03:38:06.514Z,99.90
2018-04-15T03:40:33.972Z,99.90
2018-04-15T03:43:02.280Z,99.90
2018-04-15T03:45:29.706Z,99.90
2018-04-15T03:47:57.165Z,99.90
2018-04-15T03:50:24.617Z,99.90
2018-04-15T03:52:52.131Z,99.90
2018-04-15T03:55:19.572Z,99.90
2018-04-15T03:57:47.098Z,99.90
2018-04-15T04:00:15.319Z,99.90
2018-04-15T04:02:42.794Z,99.90
2018-04-15T04:05:10.386Z,99.90
2018-04-15T04:07:37.847Z,99.90
2018-04-15T04:10:05.298Z,99.90
2018-04-15T04:12:33.583Z,99.90
2018-04-15T04:15:01.046Z,99.90
2018-04-15T04:17:40.466Z,99.90
2018-04-15T04:20:19.855Z,99.90
2018-04-15T04:22:59.312Z,99.90
2018-04-15T04:25:39.415Z,99.90
2018-04-15T04:28:06.854Z,99.90
2018-04-15T04:30:35.094Z,99.90
2018-04-15T04:33:02.884Z,99.90
2018-04-15T04:35:30.534Z,99.90
2018-04-15T04:37:57.983Z,99.90
2018-04-15T04:40:26.317Z,99.90
2018-04-15T04:55:48.834Z,99.90
2018-04-15T04:58:16.283Z,99.90
2018-04-15T05:00:43.742Z,99.90
2018-04-15T05:03:11.946Z,99.90
2018-04-15T05:05:39.424Z,99.90
2018-04-15T05:08:06.906Z,99.90
2018-04-15T05:10:34.398Z,99.90
2018-04-15T05:13:01.908Z,99.90
2018-04-15T05:15:37.833Z,99.90
2018-04-15T05:18:05.339Z,99.90
2018-04-15T05:20:32.803Z,99.90
2018-04-15T05:23:00.303Z,99.90
2018-04-15T05:25:28.540Z,99.90
2018-04-15T05:27:56.000Z,99.90
2018-04-15T05:30:23.451Z,99.90
2018-04-15T05:32:51.008Z,99.90
2018-04-15T05:35:18.468Z,99.90
2018-04-15T05:37:45.952Z,99.90
2018-04-15T05:40:13.395Z,99.90
2018-04-15T05:42:40.859Z,99.90
2018-04-15T05:45:08.296Z,99.90
2018-04-15T05:47:35.763Z,99.90
2018-04-15T05:50:03.206Z,99.90
2018-04-15T05:52:30.672Z,99.90
2018-04-15T05:54:58.115Z,99.90
2018-04-15T05:57:26.349Z,99.90
2018-04-15T05:59:53.814Z,99.90
2018-04-15T06:02:21.291Z,99.90
2018-04-15T06:04:48.745Z,99.90
2018-04-15T06:07:16.210Z,99.90
2018-04-15T06:09:44.458Z,99.90
2018-04-15T06:12:11.932Z,99.90
2018-04-15T06:14:39.473Z,99.90
2018-04-15T06:17:06.966Z,99.90
2018-04-15T06:19:34.441Z,99.90
2018-04-15T06:22:01.906Z,99.90
2018-04-15T06:24:30.035Z,99.90
2018-04-15T06:26:57.723Z,99.90
2018-04-15T06:29:25.957Z,99.90
2018-04-15T06:31:53.463Z,99.90
2018-04-15T06:34:21.724Z,99.90
2018-04-15T06:36:50.029Z,99.90
2018-04-15T06:39:17.426Z,99.90
2018-04-15T06:41:44.892Z,99.90
2018-04-15T06:44:12.423Z,99.90
2018-04-15T06:46:39.881Z,99.90
2018-04-15T06:49:07.387Z,99.90
2018-04-15T06:51:34.830Z,99.90
2018-04-15T06:54:03.073Z,99.90
2018-04-15T06:56:30.549Z,99.90
2018-04-15T06:58:58.028Z,99.90
2018-04-15T07:01:26.272Z,99.90
2018-04-15T07:03:53.741Z,99.90
2018-04-15T07:06:21.214Z,99.90
2018-04-15T07:08:49.263Z,99.90
2018-04-15T07:11:16.746Z,99.90
2018-04-15T07:13:44.960Z,99.90
2018-04-15T07:16:12.484Z,99.90
2018-04-15T07:18:40.725Z,99.90
2018-04-15T07:21:08.213Z,99.90
2018-04-15T07:23:36.442Z,99.90
2018-04-15T07:26:04.737Z,99.90
2018-04-15T07:28:32.258Z,99.90
2018-04-15T07:30:59.731Z,99.90
2018-04-15T07:33:27.192Z,99.90
2018-04-15T07:35:54.667Z,99.90
2018-04-15T07:38:22.131Z,99.90
2018-04-15T07:40:49.633Z,99.90
2018-04-15T07:43:17.112Z,99.90
2018-04-15T07:45:44.672Z,99.90
2018-04-15T07:48:12.126Z,99.90
2018-04-15T07:50:39.614Z,99.90
2018-04-15T07:53:07.075Z,99.90
2018-04-15T07:55:35.311Z,99.90
2018-04-15T07:58:02.881Z,99.90
2018-04-15T08:00:30.361Z,99.90
2018-04-15T08:02:57.906Z,99.90
2018-04-15T08:05:26.177Z,99.90
2018-04-15T08:07:53.736Z,99.90
2018-04-15T08:10:21.267Z,99.90
2018-04-15T08:12:48.852Z,99.90
2018-04-15T08:15:16.315Z,99.90
2018-04-15T08:17:43.834Z,99.90
2018-04-15T08:20:11.319Z,99.90
2018-04-15T08:22:38.772Z,99.90
2018-04-15T08:25:06.251Z,99.90
2018-04-15T08:27:33.722Z,99.90
2018-04-15T08:30:01.236Z,99.90
2018-04-15T08:32:29.493Z,99.90
2018-04-15T08:34:56.968Z,99.90
2018-04-15T08:37:24.469Z,99.90
2018-04-15T08:39:51.903Z,99.90
2018-04-15T08:42:19.383Z,99.90
2018-04-15T08:44:46.871Z,99.90
2018-04-15T08:47:14.347Z,99.90
2018-04-15T08:49:41.890Z,99.90
2018-04-15T08:52:09.364Z,99.90
2018-04-15T08:54:36.835Z,99.90
2018-04-15T08:57:04.276Z,99.90
2018-04-15T08:59:32.531Z,99.90
2018-04-15T09:01:59.983Z,99.90
2018-04-15T09:04:27.552Z,99.90
2018-04-15T09:06:54.967Z,99.90
2018-04-15T09:09:22.439Z,99.50
2018-04-15T09:11:49.945Z,99.90
2018-04-15T09:14:18.192Z,99.90
2018-04-15T09:16:45.697Z,99.90
2018-04-15T09:19:13.205Z,99.90
2018-04-15T09:21:41.431Z,99.90
2018-04-15T09:24:08.928Z,99.90
2018-04-15T09:26:36.860Z,99.90
2018-04-15T09:29:05.068Z,99.90
2018-04-15T09:31:32.536Z,99.90
2018-04-15T09:34:00.045Z,99.90
2018-04-15T09:36:27.555Z,97.50
2018-04-15T09:38:55.047Z,96.70
2018-04-15T09:41:23.269Z,97.90
2018-04-15T09:43:50.766Z,97.90
2018-04-15T09:46:18.218Z,98.30
2018-04-15T09:48:45.773Z,98.10
2018-04-15T09:51:13.256Z,98.80
2018-04-15T09:53:40.740Z,99.90
2018-04-15T09:56:08.201Z,99.90
2018-04-15T09:58:35.722Z,99.90
2018-04-15T10:01:07.071Z,99.90
2018-04-15T10:03:34.539Z,99.30
2018-04-15T10:06:02.015Z,98.10
2018-04-15T10:08:29.526Z,95.70
2018-04-15T10:10:57.022Z,93.10
2018-04-15T10:13:24.516Z,94.20
2018-04-15T10:15:52.026Z,92.10
2018-04-15T10:18:19.504Z,90.40
2018-04-15T10:20:46.965Z,86.00
2018-04-15T10:23:14.439Z,82.40
2018-04-15T10:25:41.927Z,82.30
2018-04-15T10:28:09.543Z,79.80
2018-04-15T10:30:37.034Z,80.80
2018-04-15T10:33:04.522Z,78.50
2018-04-15T10:35:33.285Z,77.20
2018-04-15T10:38:00.735Z,77.10
2018-04-15T10:40:28.200Z,76.20
2018-04-15T10:42:55.643Z,76.40
2018-04-15T10:45:24.075Z,76.60
2018-04-15T10:47:51.549Z,76.60
2018-04-15T10:50:19.063Z,74.00
2018-04-15T10:52:46.567Z,74.80
2018-04-15T10:55:14.815Z,75.40
2018-04-15T10:57:42.253Z,75.30
2018-04-15T11:00:09.738Z,74.30
2018-04-15T11:02:37.303Z,73.50
2018-04-15T11:05:04.771Z,69.80
2018-04-15T11:07:32.249Z,66.40
2018-04-15T11:10:00.468Z,67.40
2018-04-15T11:12:27.940Z,68.20
2018-04-15T11:14:56.170Z,68.80
2018-04-15T11:17:23.629Z,68.80
2018-04-15T11:19:51.093Z,70.80
2018-04-15T11:22:18.591Z,71.70
2018-04-15T11:24:49.991Z,71.20
2018-04-15T11:27:18.216Z,68.40
2018-04-15T11:29:45.672Z,68.40
2018-04-15T11:32:13.146Z,69.20
2018-04-15T11:34:40.615Z,69.80
2018-04-15T11:37:08.852Z,71.20
2018-04-15T11:39:36.305Z,71.20
2018-04-15T11:42:03.784Z,70.60
2018-04-15T11:44:31.315Z,68.00
2018-04-15T11:46:58.824Z,68.10
2018-04-15T11:49:27.068Z,67.60
2018-04-15T11:51:54.514Z,67.60
2018-04-15T11:54:22.010Z,68.70
2018-04-15T11:56:49.479Z,66.00
2018-04-15T11:59:16.971Z,64.90
2018-04-15T12:01:44.387Z,64.00
2018-04-15T12:04:11.896Z,65.50
2018-04-15T12:06:39.351Z,66.70
2018-04-15T12:09:06.839Z,66.40
2018-04-15T12:11:34.310Z,64.00
2018-04-15T12:14:01.787Z,64.50
2018-04-15T12:16:30.022Z,67.70
2018-04-15T12:18:57.516Z,67.70
2018-04-15T12:21:24.954Z,67.30
2018-04-15T12:23:52.423Z,64.40
2018-04-15T12:26:19.898Z,64.00
2018-04-15T12:28:47.426Z,65.60
2018-04-15T12:31:15.008Z,63.60
2018-04-15T12:33:43.252Z,63.10
2018-04-15T12:36:10.673Z,63.10
2018-04-15T12:38:38.112Z,61.80
2018-04-15T12:41:05.591Z,60.10
2018-04-15T12:43:33.467Z,59.30
2018-04-15T12:46:00.952Z,59.90
2018-04-15T12:48:28.399Z,60.30
2018-04-15T12:50:55.866Z,59.80
2018-04-15T12:53:23.362Z,58.30
2018-04-15T12:55:50.834Z,58.20
2018-04-15T12:58:18.276Z,58.20
2018-04-15T13:00:45.781Z,58.60
2018-04-15T13:03:13.235Z,59.10
2018-04-15T13:05:40.679Z,58.40
2018-04-15T13:08:08.178Z,59.00
2018-04-15T13:10:35.651Z,59.10
2018-04-15T13:13:03.134Z,60.30
2018-04-15T13:15:30.589Z,61.80
2018-04-15T13:17:58.082Z,61.20
2018-04-15T13:20:25.529Z,61.10
2018-04-15T13:22:53.039Z,59.60
2018-04-15T13:25:24.697Z,59.20
2018-04-15T13:27:52.135Z,59.20
2018-04-15T13:30:20.345Z,60.70
2018-04-15T13:32:47.828Z,60.70
2018-04-15T13:35:15.288Z,60.00
2018-04-15T13:37:43.525Z,62.30
2018-04-15T13:40:10.983Z,62.30
2018-04-15T13:42:38.460Z,61.90
2018-04-15T13:45:09.599Z,62.00
2018-04-15T13:47:37.123Z,62.50
2018-04-15T13:50:04.594Z,62.10
2018-04-15T13:52:32.058Z,62.80
2018-04-15T13:54:59.548Z,64.30
2018-04-15T13:57:27.069Z,64.20
2018-04-15T13:59:54.505Z,64.40
2018-04-15T14:02:23.745Z,61.10
2018-04-15T14:04:51.371Z,61.40
2018-04-15T14:07:18.832Z,58.70
2018-04-15T14:09:46.331Z,57.70
2018-04-15T14:12:13.796Z,57.40
2018-04-15T14:14:41.251Z,57.50
2018-04-15T14:17:08.713Z,57.80
2018-04-15T14:19:36.164Z,56.60
2018-04-15T14:22:03.638Z,56.10
2018-04-15T14:24:31.128Z,55.40
2018-04-15T14:26:58.598Z,55.60
2018-04-15T14:29:34.698Z,54.90
2018-04-15T14:32:09.233Z,54.80
2018-04-15T14:34:36.950Z,55.60
2018-04-15T14:37:05.761Z,57.10
2018-04-15T14:39:42.263Z,57.90
2018-04-15T14:45:55.715Z,58.70
2018-04-15T14:48:23.201Z,60.30
2018-04-15T14:50:50.790Z,61.70
2018-04-15T14:53:18.324Z,62.10
2018-04-15T14:55:46.028Z,63.40
2018-04-15T14:58:14.597Z,62.40
2018-04-15T15:00:42.098Z,62.40
2018-04-15T15:03:09.608Z,62.40
2018-04-15T15:05:41.236Z,62.10
2018-04-15T15:08:08.774Z,61.70
2018-04-15T15:10:36.235Z,62.00
2018-04-15T15:13:08.545Z,63.30
2018-04-15T15:15:40.159Z,64.00
2018-04-15T15:18:07.734Z,63.90
2018-04-15T15:20:35.367Z,62.20
2018-04-15T15:23:06.890Z,60.90
2018-04-15T15:25:34.949Z,60.30
2018-04-15T15:28:02.552Z,59.90
2018-04-15T15:30:30.876Z,60.50
2018-04-15T15:32:58.438Z,60.20
2018-04-15T15:35:25.986Z,60.10
2018-04-15T15:37:53.839Z,59.70
2018-04-15T15:40:21.564Z,60.30
2018-04-15T15:42:49.126Z,59.70
2018-04-15T15:45:16.664Z,59.70
2018-04-15T15:47:45.604Z,59.90
2018-04-15T15:50:13.209Z,59.50
2018-04-15T15:52:40.806Z,60.00
2018-04-15T15:55:08.361Z,60.80
2018-04-15T15:57:36.087Z,61.70
2018-04-15T16:00:03.840Z,61.60
2018-04-15T16:02:31.351Z,62.80
2018-04-15T16:04:58.935Z,63.20
2018-04-15T16:07:26.502Z,61.50
2018-04-15T16:09:54.513Z,63.10
2018-04-15T16:12:22.049Z,63.50
2018-04-15T16:14:49.636Z,63.70
2018-04-15T16:17:17.654Z,64.10
2018-04-15T16:19:45.204Z,63.50
2018-04-15T16:22:12.720Z,63.50
2018-04-15T16:24:40.777Z,63.80
2018-04-15T16:27:08.760Z,63.70
2018-04-15T16:29:36.488Z,63.20
2018-04-15T16:32:04.134Z,62.00
2018-04-15T16:34:31.666Z,62.30
2018-04-15T16:36:59.339Z,62.10
2018-04-15T16:39:27.134Z,62.10
2018-04-15T16:41:55.239Z,62.80
2018-04-15T16:44:22.745Z,63.40
2018-04-15T16:46:50.654Z,63.00
2018-04-15T16:49:18.194Z,63.70
2018-04-15T16:51:45.784Z,64.10
2018-04-15T16:54:13.287Z,63.80
2018-04-15T16:56:40.818Z,63.50
2018-04-15T16:59:09.328Z,65.00
2018-04-15T17:01:36.851Z,64.10
2018-04-15T17:04:05.113Z,64.70
2018-04-15T17:06:32.608Z,64.70
2018-04-15T17:09:00.113Z,64.90
2018-04-15T17:11:27.642Z,65.20
2018-04-15T17:13:55.165Z,65.90
2018-04-15T17:16:22.808Z,66.00
2018-04-15T17:18:50.374Z,66.60
2018-04-15T17:21:18.684Z,67.20
2018-04-15T17:23:46.316Z,67.10
2018-04-15T17:26:14.604Z,68.30
2018-04-15T17:28:42.141Z,68.30
2018-04-15T17:31:10.376Z,71.50
2018-04-15T17:33:38.739Z,71.50
2018-04-15T17:36:06.366Z,72.80
2018-04-15T17:38:33.929Z,73.70
2018-04-15T17:41:01.404Z,74.70
2018-04-15T17:43:29.063Z,75.30
2018-04-15T17:45:56.617Z,76.30
2018-04-15T17:48:24.181Z,76.60
2018-04-15T17:50:51.804Z,77.20
2018-04-15T17:53:19.417Z,77.10
2018-04-15T17:55:47.331Z,77.60
2018-04-15T17:58:14.868Z,77.70
2018-04-15T18:00:42.369Z,78.00
2018-04-15T18:03:10.253Z,78.30
2018-04-15T18:05:37.892Z,78.90
2018-04-15T18:08:05.477Z,79.20
2018-04-15T18:10:33.028Z,79.50
2018-04-15T18:13:00.518Z,79.70
2018-04-15T18:15:28.026Z,80.20
2018-04-15T18:17:56.252Z,81.70
2018-04-15T18:20:23.809Z,81.70
2018-04-15T18:22:51.739Z,82.40
2018-04-15T18:25:19.330Z,83.30
2018-04-15T18:27:46.797Z,83.70
2018-04-15T18:30:14.333Z,84.20
2018-04-15T18:32:42.071Z,84.90
2018-04-15T18:35:09.693Z,85.60
2018-04-15T18:37:37.195Z,86.20
2018-04-15T18:40:05.322Z,86.30
2018-04-15T18:42:32.813Z,86.40
2018-04-15T18:45:00.346Z,86.40
2018-04-15T18:47:27.838Z,87.00
2018-04-15T18:49:55.369Z,86.90
2018-04-15T18:52:23.024Z,87.10
2018-04-15T18:54:50.688Z,86.80
2018-04-15T18:57:18.350Z,87.60
2018-04-15T18:59:45.889Z,87.90
2018-04-15T19:02:13.483Z,88.20
2018-04-15T19:04:41.027Z,87.50
2018-04-15T19:07:08.577Z,88.70
2018-04-15T19:09:39.926Z,89.80
2018-04-15T19:12:07.484Z,90.30
2018-04-15T19:14:37.918Z,90.50
2018-04-15T19:17:05.494Z,90.50
2018-04-15T19:19:33.119Z,91.00
2018-04-15T19:22:00.611Z,91.30
2018-04-15T19:24:28.150Z,91.60
2018-04-15T19:26:55.694Z,91.80
2018-04-15T19:29:23.231Z,91.90
2018-04-15T19:31:50.731Z,92.20
2018-04-15T19:34:18.227Z,92.60
2018-04-15T19:36:46.692Z,93.40
2018-04-15T19:39:14.300Z,93.60
2018-04-15T19:41:41.796Z,93.80
2018-04-15T19:44:09.607Z,94.10
2018-04-15T19:46:37.210Z,94.30
2018-04-15T19:49:04.884Z,94.40
2018-04-15T19:51:33.014Z,94.50
2018-04-15T19:54:00.685Z,94.60
2018-04-15T19:56:28.282Z,95.00
2018-04-15T19:58:56.014Z,95.50
2018-04-15T20:01:23.740Z,95.70
2018-04-15T20:03:51.358Z,95.90
2018-04-15T20:06:19.605Z,96.30
2018-04-15T20:08:47.109Z,96.30
2018-04-15T20:11:14.607Z,96.50
2018-04-15T20:13:42.083Z,96.70
2018-04-15T20:16:10.371Z,97.30
2018-04-15T20:18:38.656Z,97.30
2018-04-15T20:21:07.026Z,97.80
2018-04-15T20:23:34.545Z,97.80
2018-04-15T20:26:02.040Z,98.20
2018-04-15T20:28:30.323Z,98.30
2018-04-15T20:30:58.889Z,98.50
2018-04-15T20:33:26.399Z,98.50
2018-04-15T20:35:53.864Z,99.00
2018-04-15T20:38:21.380Z,99.30
2018-04-15T20:40:48.837Z,99.80
2018-04-15T20:43:16.449Z,99.80
2018-04-15T20:45:43.933Z,99.90
2018-04-15T20:48:12.235Z,99.90
2018-04-15T20:50:39.720Z,99.90
2018-04-15T20:53:07.243Z,99.90
2018-04-15T20:55:34.697Z,99.90
2018-04-15T20:58:02.161Z,99.90
2018-04-15T21:00:29.672Z,99.90
2018-04-15T21:02:57.147Z,99.90
2018-04-15T21:05:25.453Z,99.90
2018-04-15T21:07:53.057Z,99.90
2018-04-15T21:10:21.445Z,99.90
2018-04-15T21:12:49.150Z,99.90
2018-04-15T21:15:16.862Z,99.90
2018-04-15T21:17:44.509Z,99.90
2018-04-15T21:20:12.074Z,99.90
2018-04-15T21:22:39.718Z,99.90
2018-04-15T21:25:07.448Z,99.90
2018-04-15T21:27:34.977Z,99.90
2018-04-15T21:30:02.502Z,99.90
2018-04-15T21:32:30.034Z,99.90
2018-04-15T21:34:57.682Z,99.90
2018-04-15T21:37:25.228Z,99.90
2018-04-15T21:39:53.479Z,99.90
2018-04-15T21:42:20.984Z,99.90
2018-04-15T21:44:48.531Z,99.90
2018-04-15T21:47:16.000Z,99.90
2018-04-15T21:49:43.475Z,99.90
2018-04-15T21:52:10.970Z,99.90
2018-04-15T21:54:38.455Z,99.90
2018-04-15T21:57:05.933Z,99.90
2018-04-15T21:59:33.408Z,99.90
2018-04-15T22:02:01.644Z,99.90
2018-04-15T22:04:29.132Z,99.90
2018-04-15T22:06:56.621Z,99.90
2018-04-15T22:09:24.080Z,99.90
2018-04-15T22:12:03.312Z,99.90
2018-04-15T22:14:30.797Z,99.90
2018-04-15T22:16:58.484Z,99.90
2018-04-15T22:19:25.977Z,99.90
2018-04-15T22:21:53.517Z,99.90
2018-04-15T22:24:21.021Z,99.90
2018-04-15T22:26:48.736Z,99.90
2018-04-15T22:29:16.290Z,99.90
2018-04-15T22:31:43.803Z,99.90
2018-04-15T22:34:11.270Z,99.90
2018-04-15T22:36:39.611Z,99.90
2018-04-15T22:39:07.054Z,99.90
2018-04-15T22:41:34.525Z,99.90
2018-04-15T22:44:01.989Z,99.90
2018-04-15T22:46:29.469Z,99.90
2018-04-15T22:48:57.718Z,99.90
2018-04-15T22:51:25.184Z,99.90
2018-04-15T22:53:53.694Z,99.90
2018-04-15T22:56:21.206Z,99.90
2018-04-15T22:58:48.678Z,99.90
2018-04-15T23:01:17.482Z,99.90
2018-04-15T23:03:45.715Z,99.90
2018-04-15T23:06:13.203Z,99.90
2018-04-15T23:08:40.670Z,99.90
2018-04-15T23:11:08.139Z,99.90
2018-04-15T23:13:35.630Z,99.90
2018-04-15T23:16:03.090Z,99.90
2018-04-15T23:18:31.305Z,99.90
2018-04-15T23:20:59.640Z,99.90
2018-04-15T23:23:27.113Z,99.90
2018-04-15T23:25:54.566Z,99.90
2018-04-15T23:28:22.100Z,99.90
2018-04-15T23:30:49.590Z,99.90
2018-04-15T23:33:17.039Z,99.90
2018-04-15T23:35:44.508Z,99.90
2018-04-15T23:38:11.969Z,99.90
2018-04-15T23:40:39.430Z,99.90
2018-04-15T23:43:07.677Z,99.90
2018-04-15T23:45:35.150Z,99.90
2018-04-15T23:48:02.600Z,99.90
2018-04-15T23:50:30.065Z,99.90
2018-04-15T23:52:57.526Z,99.90
2018-04-15T23:55:25.089Z,99.90
2018-04-15T23:57:52.523Z,99.90
